Time;durP1;ratioP1;P1;durP2;ratioP2;P2;SDS_P1;SDS_P2;PMS_P1;PMS_P2;Temp;Humidity;BMP_temperature;BMP_pressure;BME280_temperature;BME280_humidity;BME280_pressure;Samples;Min_cycle;Max_cycle;Signal;HPM_P1;HPM_P2
2021/10/02 00:36:46;;;;;;;;;;;14.30;99.90;;;;;;8394305;28;19933;-72
2021/10/02 00:45:08;;;;;;;;;;;14.30;99.90;;;;;;8390868;28;24080;-72
2021/10/02 00:49:10;;;;;;;;;;;14.30;99.90;;;;;;8389849;28;19973;-72
2021/10/02 00:53:13;;;;;;;;;;;14.30;99.90;;;;;;8407030;28;19920;-72
2021/10/02 00:57:15;;;;;;;;;;;14.30;99.90;;;;;;8386328;28;19961;-72
2021/10/02 01:01:20;;;;;;;;;;;14.30;99.90;;;;;;8392655;28;19921;-73
2021/10/02 01:05:40;;;;;;;;;;;14.30;99.90;;;;;;8394833;28;19920;-72
2021/10/02 01:10:06;;;;;;;;;;;14.30;99.90;;;;;;8385248;28;20253;-72
2021/10/02 01:14:26;;;;;;;;;;;14.20;99.90;;;;;;8393067;28;19920;-71
2021/10/02 01:18:28;;;;;;;;;;;14.20;99.90;;;;;;8388079;28;20019;-72
2021/10/02 01:22:43;;;;;;;;;;;14.20;99.90;;;;;;8385756;28;19924;-72
2021/10/02 01:27:07;;;;;;;;;;;14.20;99.90;;;;;;8387097;28;19927;-72
2021/10/02 01:31:33;;;;;;;;;;;14.20;99.90;;;;;;8392642;28;19920;-72
2021/10/02 01:35:44;;;;;;;;;;;14.20;99.90;;;;;;8391450;28;20338;-72
2021/10/02 01:48:27;;;;;;;;;;;14.20;99.90;;;;;;8390562;28;19968;-72
2021/10/02 01:52:36;;;;;;;23.65;14.73;;;14.20;99.90;;;;;;8387852;28;19927;-72
2021/10/02 01:56:38;;;;;;;;;;;14.20;99.90;;;;;;8390200;28;20048;-72
2021/10/02 02:00:42;;;;;;;;;;;14.20;99.90;;;;;;8392210;28;19925;-73
2021/10/02 02:04:45;;;;;;;;;;;14.20;99.90;;;;;;8398008;28;20356;-72
2021/10/02 02:08:46;;;;;;;;;;;14.20;99.90;;;;;;8382262;28;19921;-72
2021/10/02 02:12:58;;;;;;;;;;;14.20;99.90;;;;;;8374931;28;19948;-72
2021/10/02 02:17:01;;;;;;;;;;;14.20;99.90;;;;;;8382439;28;19925;-72
2021/10/02 02:21:04;;;;;;;;;;;14.20;99.90;;;;;;8386014;28;19947;-73
2021/10/02 02:25:06;;;;;;;;;;;14.20;99.90;;;;;;8388562;28;19932;-72
2021/10/02 02:29:08;;;;;;;;;;;14.20;99.90;;;;;;8393579;28;19920;-72
2021/10/02 02:33:10;;;;;;;;;;;14.20;99.90;;;;;;8393333;28;19932;-72
2021/10/02 02:37:11;;;;;;;;;;;14.20;99.90;;;;;;8383001;28;19920;-73
2021/10/02 02:41:13;;;;;;;;;;;14.10;99.90;;;;;;8385311;28;19920;-72
2021/10/02 02:45:16;;;;;;;;;;;14.10;99.90;;;;;;8393250;28;24084;-72
2021/10/02 02:49:23;;;;;;;;;;;14.10;99.90;;;;;;8389204;28;20391;-73
2021/10/02 02:53:37;;;;;;;;;;;14.20;99.90;;;;;;8390290;28;19924;-72
2021/10/02 02:57:40;;;;;;;;;;;14.10;99.90;;;;;;8392186;28;19932;-72
2021/10/02 03:01:43;;;;;;;;;;;14.20;99.90;;;;;;8407332;28;19924;-72
2021/10/02 03:05:45;;;;;;;;;;;14.20;99.90;;;;;;8381073;28;19966;-72
2021/10/02 03:09:51;;;;;;;;;;;14.20;99.90;;;;;;8383868;28;24075;-72
2021/10/02 03:13:54;;;;;;;;;;;14.20;99.90;;;;;;8383832;28;20578;-72
2021/10/02 03:17:57;;;;;;;;;;;14.20;99.90;;;;;;8389907;28;19924;-71
2021/10/02 03:21:58;;;;;;;;;;;14.20;99.90;;;;;;8375691;28;19966;-72
2021/10/02 03:26:01;;;;;;;;;;;14.10;99.90;;;;;;8392383;28;19934;-72
2021/10/02 03:30:02;;;;;;;;;;;14.10;99.90;;;;;;8415346;28;19920;-72
2021/10/02 03:34:04;;;;;;;;;;;14.10;99.90;;;;;;8390725;28;19921;-72
2021/10/02 03:38:06;;;;;;;;;;;14.10;99.90;;;;;;8392504;28;19931;-73
2021/10/02 03:42:22;;;;;;;;;;;14.10;99.90;;;;;;8393154;28;19924;-72
2021/10/02 03:46:24;;;;;;;;;;;14.10;99.90;;;;;;8391692;28;20287;-72
2021/10/02 03:50:26;;;;;;;;;;;14.10;99.90;;;;;;8414038;28;19921;-72
2021/10/02 03:54:28;;;;;;;;;;;14.10;99.90;;;;;;8386286;28;19920;-72
2021/10/02 03:58:29;;;;;;;;;;;14.00;99.90;;;;;;8395768;28;19920;-72
2021/10/02 04:02:31;;;;;;;;;;;14.00;99.90;;;;;;8396003;28;20008;-72
2021/10/02 04:06:33;;;;;;;;;;;13.90;99.90;;;;;;8411476;28;20290;-72
2021/10/02 04:10:34;;;;;;;;;;;13.90;99.90;;;;;;8397957;28;19999;-72
2021/10/02 04:14:36;;;;;;;;;;;13.90;99.90;;;;;;8390868;28;19955;-72
2021/10/02 04:18:38;;;;;;;;;;;13.80;99.90;;;;;;8392821;28;19928;-72
2021/10/02 04:22:40;;;;;;;;;;;13.80;99.90;;;;;;8392487;28;20151;-72
2021/10/02 04:26:42;;;;;;;;;;;13.80;99.90;;;;;;8389161;28;19927;-72
2021/10/02 04:30:43;;;;;;;;;;;13.80;99.90;;;;;;8396434;28;19928;-72
2021/10/02 04:34:45;;;;;;;;;;;13.90;99.90;;;;;;8385793;28;19931;-72
2021/10/02 04:38:47;;;;;;;;;;;13.90;99.90;;;;;;8408464;28;19928;-72
2021/10/02 04:42:49;;;;;;;;;;;13.80;99.90;;;;;;8394400;28;19920;-72
2021/10/02 04:46:50;;;;;;;;;;;13.80;99.90;;;;;;8395166;28;19931;-72
2021/10/02 04:50:52;;;;;;;;;;;13.80;99.90;;;;;;8396870;28;19920;-72
2021/10/02 04:54:56;;;;;;;;;;;13.70;99.90;;;;;;8390961;28;20293;-72
2021/10/02 04:58:58;;;;;;;;;;;13.70;99.90;;;;;;8397565;28;19936;-72
2021/10/02 05:03:00;;;;;;;;;;;13.80;99.90;;;;;;8387812;28;19921;-72
2021/10/02 05:07:02;;;;;;;;;;;13.80;99.90;;;;;;8390546;28;20372;-71
2021/10/02 05:11:05;;;;;;;;;;;13.80;99.90;;;;;;8395916;28;19927;-72
2021/10/02 05:15:06;;;;;;;;;;;13.80;99.90;;;;;;8394140;28;19935;-72
2021/10/02 05:19:08;;;;;;;;;;;13.80;99.90;;;;;;8398226;28;20276;-72
2021/10/02 05:23:10;;;;;;;;;;;13.80;99.90;;;;;;8383908;28;19921;-72
2021/10/02 05:27:13;;;;;;;;;;;13.80;99.90;;;;;;8389008;28;20270;-72
2021/10/02 05:31:15;;;;;;;;;;;13.80;99.90;;;;;;8395766;28;19921;-72
2021/10/02 05:35:17;;;;;;;;;;;13.70;99.90;;;;;;8385014;28;19927;-72
2021/10/02 05:39:18;;;;;;;;;;;13.70;99.90;;;;;;8392655;28;20406;-73
2021/10/02 05:43:20;;;;;;;;;;;13.60;99.90;;;;;;8374601;28;20346;-72
2021/10/02 05:47:22;;;;;;;;;;;13.50;99.90;;;;;;8388156;28;20256;-72
2021/10/02 05:51:24;;;;;;;;;;;13.50;99.90;;;;;;8408717;28;20338;-73
2021/10/02 05:55:26;;;;;;;;;;;13.50;99.90;;;;;;8391188;28;19920;-72
2021/10/02 05:59:27;;;;;;;;;;;13.50;99.90;;;;;;8394274;28;19920;-72
2021/10/02 06:03:29;;;;;;;;;;;13.50;99.90;;;;;;8392626;28;19924;-72
2021/10/02 06:07:31;;;;;;;;;;;13.40;99.90;;;;;;8381996;28;19939;-73
2021/10/02 06:11:33;;;;;;;;;;;13.40;99.90;;;;;;8385687;28;19963;-72
2021/10/02 06:15:34;;;;;;;;;;;13.30;99.90;;;;;;8388966;28;19942;-72
2021/10/02 06:19:36;;;;;;;;;;;13.30;99.90;;;;;;8386530;28;20387;-72
2021/10/02 06:23:38;;;;;;;;;;;13.30;99.90;;;;;;8402925;28;20375;-72
2021/10/02 06:27:40;;;;;;;;;;;13.30;99.90;;;;;;8388565;28;20370;-72
2021/10/02 06:31:41;;;;;;;;;;;13.40;99.90;;;;;;8389619;28;19928;-74
2021/10/02 06:35:43;;;;;;;;;;;13.40;99.90;;;;;;8377132;28;19927;-72
2021/10/02 06:39:45;;;;;;;;;;;13.50;99.90;;;;;;8393637;28;19928;-72
2021/10/02 06:43:47;;;;;;;;;;;13.50;99.90;;;;;;8374496;28;20274;-72
2021/10/02 06:47:49;;;;;;;;;;;13.50;99.90;;;;;;8382454;28;20412;-72
2021/10/02 06:51:51;;;;;;;;;;;13.50;99.90;;;;;;8391436;28;19931;-73
2021/10/02 06:55:52;;;;;;;;;;;13.60;99.90;;;;;;8381117;28;19931;-73
2021/10/02 06:59:54;;;;;;;;;;;13.60;99.90;;;;;;8393737;28;19927;-72
2021/10/02 07:03:56;;;;;;;;;;;13.60;99.90;;;;;;8390413;28;19924;-72
2021/10/02 07:07:58;;;;;;;;;;;13.60;99.90;;;;;;8389049;28;19920;-72
2021/10/02 07:11:59;;;;;;;;;;;13.60;99.90;;;;;;8391925;28;19924;-72
2021/10/02 07:16:01;;;;;;;37.83;18.27;;;13.70;99.90;;;;;;8407504;28;19935;-72
2021/10/02 07:20:04;;;;;;;37.25;18.02;;;13.70;99.90;;;;;;8382965;28;20049;-72
2021/10/02 07:24:05;;;;;;;32.40;16.52;;;13.70;99.90;;;;;;8364959;28;20419;-72
2021/10/02 07:28:07;;;;;;;28.95;16.30;;;13.70;99.90;;;;;;8366336;28;20071;-72
2021/10/02 07:32:09;;;;;;;29.30;15.25;;;13.70;99.90;;;;;;8358631;28;20053;-73
2021/10/02 07:36:11;;;;;;;28.75;15.85;;;13.70;99.90;;;;;;8362808;28;20075;-72
2021/10/02 07:40:14;;;;;;;26.52;15.85;;;13.80;99.90;;;;;;8369861;28;20511;-72
2021/10/02 07:44:23;;;;;;;24.30;13.75;;;13.80;99.90;;;;;;8364102;28;20430;-72
2021/10/02 07:48:25;;;;;;;21.98;12.25;;;13.80;99.90;;;;;;8367165;28;20495;-72
2021/10/02 07:52:28;;;;;;;24.23;13.93;;;13.90;99.90;;;;;;8363605;28;20052;-72
2021/10/02 07:56:31;;;;;;;27.85;14.77;;;13.90;99.90;;;;;;8350718;28;20386;-72
2021/10/02 08:00:32;;;;;;;28.67;15.48;;;13.90;99.90;;;;;;8373423;28;20055;-73
2021/10/02 08:04:34;;;;;;;26.25;14.30;;;13.90;99.90;;;;;;8367154;28;20049;-72
2021/10/02 08:08:36;;;;;;;24.48;13.80;;;13.90;99.90;;;;;;8368254;28;20113;-72
2021/10/02 08:12:39;;;;;;;26.75;13.82;;;13.90;99.90;;;;;;8361774;28;20079;-72
2021/10/02 08:16:43;;;;;;;21.65;12.88;;;13.90;99.90;;;;;;8365863;28;20623;-73
2021/10/02 08:20:46;;;;;;;20.13;11.77;;;14.00;99.90;;;;;;8365798;28;20392;-72
2021/10/02 08:24:52;;;;;;;19.48;11.25;;;14.10;99.90;;;;;;8367923;28;20048;-73
2021/10/02 08:28:54;;;;;;;21.80;11.75;;;14.10;99.90;;;;;;8369571;28;20036;-72
2021/10/02 08:32:58;;;;;;;17.25;9.75;;;14.10;99.90;;;;;;8373688;28;20053;-72
2021/10/02 08:36:59;;;;;;;16.20;8.52;;;14.10;99.90;;;;;;8373708;28;20380;-72
2021/10/02 08:41:03;;;;;;;17.83;10.85;;;14.10;99.90;;;;;;8362568;28;20053;-73
2021/10/02 08:45:07;;;;;;;15.88;9.80;;;14.10;99.90;;;;;;8369660;28;20087;-73
2021/10/02 08:49:42;;;;;;;16.38;8.68;;;14.10;99.90;;;;;;8366001;28;20052;-72
2021/10/02 08:53:44;;;;;;;19.10;11.07;;;14.20;99.90;;;;;;8370291;28;20048;-73
2021/10/02 08:57:48;;;;;;;17.58;10.38;;;14.20;99.90;;;;;;8373217;28;20400;-72
2021/10/02 09:01:50;;;;;;;15.05;9.98;;;14.30;99.90;;;;;;8370914;28;20064;-72
2021/10/02 09:05:52;;;;;;;19.70;10.45;;;14.30;99.90;;;;;;8370402;28;20419;-72
2021/10/02 09:09:54;;;;;;;;;;;14.30;99.90;;;;;;8347381;28;20615;-72
2021/10/02 09:13:56;;;;;;;;;;;14.40;99.90;;;;;;8346528;28;19940;-72
2021/10/02 09:17:58;;;;;;;;;;;14.60;99.90;;;;;;8335087;28;19929;-72
2021/10/02 09:22:03;;;;;;;;;;;14.70;99.90;;;;;;8349879;28;19925;-72
2021/10/02 09:26:05;;;;;;;;;;;14.90;99.90;;;;;;8349833;28;20377;-73
2021/10/02 09:30:12;;;;;;;;;;;14.90;99.90;;;;;;8339184;28;20265;-72
2021/10/02 09:34:21;;;;;;;;;;;15.00;99.90;;;;;;8337841;28;19928;-72
2021/10/02 09:38:23;;;;;;;;;;;14.90;99.90;;;;;;8337651;28;19921;-72
2021/10/02 09:42:29;;;;;;;;;;;14.80;99.90;;;;;;8351350;28;19921;-71
2021/10/02 09:46:33;;;;;;;;;;;14.80;99.90;;;;;;8336270;28;20073;-72
2021/10/02 09:50:36;;;;;;;;;;;14.90;99.90;;;;;;8337294;28;19927;-72
2021/10/02 09:54:39;;;;;;;;;;;15.00;99.90;;;;;;8337322;28;20441;-72
2021/10/02 09:58:41;;;;;;;;;;;15.00;99.90;;;;;;8335548;28;20397;-71
2021/10/02 10:02:43;;;;;;;;;;;14.90;99.90;;;;;;8338401;28;19921;-71
2021/10/02 10:06:45;;;;;;;;;;;14.90;99.90;;;;;;8337656;28;20013;-72
2021/10/02 10:10:48;;;;;;;;;;;14.90;99.90;;;;;;8370370;28;20315;-72
2021/10/02 10:14:49;;;;;;;;;;;14.90;99.90;;;;;;8351056;28;19921;-72
2021/10/02 10:18:51;;;;;;;;;;;15.10;99.90;;;;;;8370410;28;19929;-72
2021/10/02 10:22:57;;;;;;;;;;;15.20;99.90;;;;;;8366053;28;20069;-72
2021/10/02 10:26:59;;;;;;;;;;;15.20;99.90;;;;;;8371569;28;19932;-72
2021/10/02 10:31:26;;;;;;;;;;;15.30;99.90;;;;;;8369594;28;20234;-72
2021/10/02 10:35:31;;;;;;;;;;;15.30;99.90;;;;;;8349804;28;20381;-72
2021/10/02 10:39:33;;;;;;;;;;;15.40;99.90;;;;;;8357945;28;19928;-72
2021/10/02 10:43:35;;;;;;;;;;;15.40;99.90;;;;;;8363885;28;19924;-72
2021/10/02 10:47:37;;;;;;;;;;;15.50;99.90;;;;;;8369994;28;20468;-72
2021/10/02 10:51:42;;;;;;;;;;;15.60;99.90;;;;;;8370984;28;19924;-72
2021/10/02 10:55:48;;;;;;;;;;;15.60;99.90;;;;;;8362746;28;20277;-72
2021/10/02 10:59:51;;;;;;;;;;;15.60;99.90;;;;;;8363118;28;19928;-72
2021/10/02 11:03:52;;;;;;;;;;;15.60;99.90;;;;;;8362559;28;19939;-71
2021/10/02 11:07:54;;;;;;;;;;;15.60;99.90;;;;;;8363027;28;19936;-72
2021/10/02 11:11:56;;;;;;;;;;;15.60;99.90;;;;;;8365043;28;19924;-72
2021/10/02 11:16:18;;;;;;;;;;;15.60;99.90;;;;;;8361294;28;19921;-72
2021/10/02 11:20:26;;;;;;;;;;;15.50;99.90;;;;;;8352303;28;19935;-72
2021/10/02 11:24:38;;;;;;;;;;;15.60;99.90;;;;;;8366921;28;19925;-71
2021/10/02 11:28:40;;;;;;;;;;;15.50;99.90;;;;;;8383493;28;19963;-72
2021/10/02 11:32:43;;;;;;;;;;;15.60;99.90;;;;;;8362377;28;19967;-72
2021/10/02 11:36:46;;;;;;;;;;;15.50;99.90;;;;;;8366778;28;20030;-71
2021/10/02 11:40:48;;;;;;;;;;;15.50;99.90;;;;;;8355625;28;19925;-72
2021/10/02 11:44:50;;;;;;;;;;;15.60;99.90;;;;;;8369154;28;20502;-71
2021/10/02 11:48:52;;;;;;;;;;;15.70;99.90;;;;;;8368622;28;19928;-72
2021/10/02 11:52:57;;;;;;;;;;;15.70;99.90;;;;;;8367802;28;20253;-72
2021/10/02 11:57:13;;;;;;;;;;;15.70;99.90;;;;;;8366716;28;19920;-72
2021/10/02 12:01:17;;;;;;;;;;;15.70;99.90;;;;;;8364006;28;19925;-72
2021/10/02 12:05:21;;;;;;;;;;;15.80;99.90;;;;;;8371230;28;19927;-71
2021/10/02 12:09:32;;;;;;;;;;;15.90;99.90;;;;;;8371212;28;19929;-72
2021/10/02 12:13:34;;;;;;;;;;;16.00;99.90;;;;;;8367168;28;20004;-72
2021/10/02 12:17:51;;;;;;;;;;;16.20;99.90;;;;;;8374045;28;19970;-72
2021/10/02 12:21:55;;;;;;;;;;;16.40;99.90;;;;;;8369666;28;19970;-72
2021/10/02 12:26:03;;;;;;;;;;;16.60;99.90;;;;;;8373838;28;20283;-72
2021/10/02 12:30:04;;;;;;;;;;;16.60;99.90;;;;;;8372201;28;19927;-72
2021/10/02 12:34:13;;;;;;;;;;;16.50;99.90;;;;;;8372970;28;20352;-72
2021/10/02 12:38:15;;;;;;;;;;;16.50;99.90;;;;;;8366079;28;19936;-72
2021/10/02 12:42:18;;;;;;;;;;;16.50;99.90;;;;;;8391409;28;19943;-72
2021/10/02 12:46:20;;;;;;;;;;;16.40;99.90;;;;;;8392508;28;19928;-72
2021/10/02 12:50:23;;;;;;;;;;;16.40;99.90;;;;;;8373671;28;20378;-72
2021/10/02 12:54:26;;;;;;;;;;;16.40;99.90;;;;;;8367069;28;19921;-72
2021/10/02 12:58:27;;;;;;;;;;;16.50;99.90;;;;;;8372701;28;19927;-72
2021/10/02 13:02:29;;;;;;;;;;;16.50;99.90;;;;;;8369103;28;19931;-72
2021/10/02 13:06:46;;;;;;;;;;;16.50;99.90;;;;;;8372651;28;19963;-72
2021/10/02 13:10:48;;;;;;;;;;;16.60;99.90;;;;;;8369511;28;19921;-72
2021/10/02 13:14:50;;;;;;;;;;;16.50;99.90;;;;;;8374522;28;19920;-72
2021/10/02 13:18:51;;;;;;;;;;;16.50;99.90;;;;;;8374157;28;19924;-74
2021/10/02 13:22:53;;;;;;;;;;;16.50;99.90;;;;;;8373716;28;19928;-72
2021/10/02 13:26:55;;;;;;;;;;;16.50;99.90;;;;;;8366251;28;19924;-72
2021/10/02 13:30:58;;;;;;;;;;;16.50;99.90;;;;;;8379586;28;20011;-72
2021/10/02 13:35:02;;;;;;;;;;;16.40;99.90;;;;;;8367408;28;19953;-72
2021/10/02 13:39:12;;;;;;;;;;;16.40;99.90;;;;;;8368575;28;19920;-72
2021/10/02 13:43:14;;;;;;;;;;;16.40;99.90;;;;;;8364754;28;19928;-72
2021/10/02 13:47:19;;;;;;;;;;;16.50;99.90;;;;;;8372775;28;20241;-72
2021/10/02 13:51:21;;;;;;;;;;;16.50;99.90;;;;;;8372086;28;20924;-72
2021/10/02 13:55:23;;;;;;;;;;;16.50;99.90;;;;;;8373694;28;19927;-73
2021/10/02 13:59:24;;;;;;;;;;;16.50;99.90;;;;;;8358307;28;20372;-72
2021/10/02 14:03:26;;;;;;;;;;;16.50;99.90;;;;;;8385660;28;20356;-72
2021/10/02 14:07:27;;;;;;;;;;;16.60;99.90;;;;;;8365024;28;19925;-72
2021/10/02 14:11:29;;;;;;;;;;;16.50;99.90;;;;;;8368666;28;21094;-73
2021/10/02 14:15:31;;;;;;;;;;;16.50;99.90;;;;;;8353266;28;19920;-72
2021/10/02 14:19:33;;;;;;;;;;;16.50;99.90;;;;;;8372084;28;19959;-72
2021/10/02 14:23:35;;;;;;;;;;;16.50;99.90;;;;;;8367757;28;19928;-72
2021/10/02 14:27:36;;;;;;;;;;;16.50;99.90;;;;;;8364163;28;19932;-72
2021/10/02 14:31:38;;;;;;;;;;;16.40;99.90;;;;;;8365384;28;19970;-72
2021/10/02 14:35:40;;;;;;;;;;;16.50;99.90;;;;;;8366989;28;20357;-72
2021/10/02 14:39:43;;;;;;;;;;;16.50;99.90;;;;;;8386572;28;20277;-72
2021/10/02 14:43:44;;;;;;;;;;;16.50;99.90;;;;;;8370798;28;19932;-72
2021/10/02 14:47:47;;;;;;;;;;;16.50;99.90;;;;;;8365097;28;20439;-72
2021/10/02 14:51:50;;;;;;;;;;;16.50;99.90;;;;;;8354372;28;20256;-72
2021/10/02 14:55:53;;;;;;;;;;;16.50;99.90;;;;;;8367491;28;19924;-72
2021/10/02 14:59:56;;;;;;;;;;;16.50;99.90;;;;;;8372351;28;19967;-72
2021/10/02 15:03:58;;;;;;;;;;;16.40;99.90;;;;;;8365632;28;19924;-72
2021/10/02 15:08:00;;;;;;;;;;;16.50;99.90;;;;;;8369250;28;19927;-72
2021/10/02 15:12:04;;;;;;;;;;;16.50;99.90;;;;;;8363840;28;19925;-72
2021/10/02 15:16:18;;;;;;;;;;;16.50;99.90;;;;;;8366762;28;20380;-72
2021/10/02 15:20:19;;;;;;;;;;;16.50;99.90;;;;;;8364323;28;19929;-72
2021/10/02 15:24:24;;;;;;;;;;;16.50;99.90;;;;;;8369974;28;20425;-72
2021/10/02 15:28:27;;;;;;;;;;;16.50;99.90;;;;;;8360028;28;19985;-72
2021/10/02 15:32:30;;;;;;;;;;;16.50;99.90;;;;;;8365700;28;20377;-72
2021/10/02 15:36:33;;;;;;;;;;;16.50;99.90;;;;;;8367689;28;19970;-72
2021/10/02 15:40:34;;;;;;;;;;;16.40;99.90;;;;;;8379497;28;19920;-72
2021/10/02 15:44:37;;;;;;;;;;;16.40;99.90;;;;;;8367095;28;19935;-72
2021/10/02 15:48:39;;;;;;;;;;;16.40;99.90;;;;;;8363595;28;19990;-72
2021/10/02 15:52:41;;;;;;;;;;;16.40;99.90;;;;;;8364865;28;19920;-72
2021/10/02 15:56:47;;;;;;;;;;;16.30;99.90;;;;;;8382450;28;20543;-72
2021/10/02 16:00:50;;;;;;;;;;;16.30;99.90;;;;;;8366936;28;19921;-71
2021/10/02 16:04:56;;;;;;;;;;;16.30;99.90;;;;;;8364314;28;20429;-72
2021/10/02 16:09:01;;;;;;;;;;;16.30;99.90;;;;;;8352178;28;19924;-72
2021/10/02 16:13:04;;;;;;;;;;;16.30;99.90;;;;;;8361972;28;19924;-72
2021/10/02 16:17:07;;;;;;;;;;;16.30;99.90;;;;;;8351227;28;19928;-72
2021/10/02 16:21:09;;;;;;;;;;;16.30;99.90;;;;;;8381560;28;19920;-74
2021/10/02 16:25:11;;;;;;;;;;;16.20;99.90;;;;;;8365484;28;19975;-72
2021/10/02 16:29:12;;;;;;;;;;;16.20;99.90;;;;;;8345738;28;19982;-71
2021/10/02 16:33:14;;;;;;;;;;;16.30;99.90;;;;;;8370559;28;19920;-72
2021/10/02 16:37:16;;;;;;;;;;;16.20;99.90;;;;;;8361757;28;19924;-71
2021/10/02 16:41:25;;;;;;;;;;;16.20;99.90;;;;;;8364893;28;20620;-72
2021/10/02 16:45:28;;;;;;;;;;;16.20;99.90;;;;;;8382337;28;19920;-72
2021/10/02 16:49:32;;;;;;;;;;;16.20;99.90;;;;;;8364753;28;20013;-71
2021/10/02 16:53:34;;;;;;;;;;;16.20;99.90;;;;;;8369181;28;20023;-71
2021/10/02 16:57:35;;;;;;;;;;;16.10;99.90;;;;;;8367252;28;19974;-71
2021/10/02 17:01:38;;;;;;;;;;;16.10;99.90;;;;;;8373970;28;20013;-72
2021/10/02 17:05:40;;;;;;;;;;;16.10;99.90;;;;;;8368106;28;19967;-71
2021/10/02 17:09:42;;;;;;;;;;;16.00;99.90;;;;;;8365590;28;19921;-72
2021/10/02 17:13:44;;;;;;;;;;;16.00;99.90;;;;;;8369623;28;19924;-71
2021/10/02 17:17:47;;;;;;;;;;;16.00;99.90;;;;;;8385414;28;19925;-72
2021/10/02 17:21:48;;;;;;;;;;;15.90;99.90;;;;;;8373044;28;19966;-72
2021/10/02 17:25:50;;;;;;;;;;;15.90;99.90;;;;;;8369213;28;19920;-72
2021/10/02 17:29:52;;;;;;;;;;;15.80;99.90;;;;;;8366482;28;19928;-72
2021/10/02 17:33:53;;;;;;;;;;;15.70;99.90;;;;;;8350701;28;19935;-72
2021/10/02 17:37:55;;;;;;;;;;;15.60;99.90;;;;;;8370377;28;19940;-72
2021/10/02 17:41:57;;;;;;;;;;;15.50;99.90;;;;;;8368190;28;20375;-72
2021/10/02 17:45:58;;;;;;;;;;;15.50;99.90;;;;;;8366017;28;19998;-72
2021/10/02 17:50:00;;;;;;;;;;;15.40;99.90;;;;;;8371223;28;19920;-72
2021/10/02 17:54:02;;;;;;;;;;;15.40;99.90;;;;;;8380647;28;19931;-72
2021/10/02 17:58:04;;;;;;;5.47;2.10;;;15.30;99.90;;;;;;8374441;28;19931;-72
2021/10/02 18:02:07;;;;;;;5.03;2.30;;;15.30;99.90;;;;;;8357235;28;20045;-73
2021/10/02 18:06:09;;;;;;;4.80;2.45;;;15.30;99.90;;;;;;8367365;28;20053;-72
2021/10/02 18:10:13;;;;;;;5.30;2.30;;;15.30;99.90;;;;;;8361607;28;20064;-72
2021/10/02 18:14:15;;;;;;;;;;;15.20;99.90;;;;;;8348484;28;20289;-72
2021/10/02 18:18:17;;;;;;;;;;;15.20;99.90;;;;;;8371226;28;19928;-73
2021/10/02 18:22:20;;;;;;;;;;;15.20;99.90;;;;;;8364116;28;19971;-72
2021/10/02 18:26:30;;;;;;;;;;;15.20;99.90;;;;;;8369487;28;19921;-72
2021/10/02 18:30:38;;;;;;;;;;;15.10;99.90;;;;;;8361654;28;19921;-72
2021/10/02 18:34:41;;;;;;;;;;;15.10;99.90;;;;;;8372186;28;19935;-72
2021/10/02 18:38:42;;;;;;;;;;;15.00;99.90;;;;;;8364494;28;19928;-72
2021/10/02 18:42:45;;;;;;;;;;;15.00;99.90;;;;;;8362124;28;20044;-72
2021/10/02 18:46:47;;;;;;;;;;;15.00;99.90;;;;;;8382715;28;19924;-72
2021/10/02 18:50:48;;;;;;;;;;;15.00;99.90;;;;;;8360460;28;19920;-72
2021/10/02 18:54:50;;;;;;;;;;;15.00;99.90;;;;;;8366144;28;19920;-72
2021/10/02 18:58:52;;;;;;;;;;;15.10;99.90;;;;;;8363836;28;19927;-72
2021/10/02 19:02:54;;;;;;;;;;;15.10;99.90;;;;;;8363263;28;20748;-72
2021/10/02 19:06:56;;;;;;;;;;;15.10;99.90;;;;;;8362691;28;20640;-72
2021/10/02 19:10:57;;;;;;;;;;;15.10;99.90;;;;;;8379914;28;19920;-72
2021/10/02 19:14:59;;;;;;;;;;;15.10;99.90;;;;;;8366896;28;20551;-72
2021/10/02 19:19:01;;;;;;;;;;;15.10;99.90;;;;;;8365171;28;19935;-72
2021/10/02 19:23:03;;;;;;;;;;;15.10;99.90;;;;;;8376790;28;19928;-71
2021/10/02 19:27:05;;;;;;;;;;;15.20;99.90;;;;;;8363917;28;19929;-72
2021/10/02 19:31:07;;;;;;;;;;;15.20;99.90;;;;;;8373258;28;19948;-72
2021/10/02 19:35:09;;;;;;;;;;;15.20;99.90;;;;;;8364712;28;19964;-71
2021/10/02 19:39:11;;;;;;;;;;;15.20;99.90;;;;;;8364642;28;19963;-73
2021/10/02 19:43:13;;;;;;;;;;;15.20;99.90;;;;;;8367901;28;19920;-72
2021/10/02 19:47:15;;;;;;;;;;;15.20;99.90;;;;;;8364218;28;19998;-73
2021/10/02 19:51:17;;;;;;;;;;;15.30;99.90;;;;;;8362337;28;19978;-72
2021/10/02 19:55:18;;;;;;;;;;;15.30;99.90;;;;;;8362481;28;20342;-72
2021/10/02 19:59:20;;;;;;;;;;;15.20;99.90;;;;;;8362428;28;19943;-72
2021/10/02 20:03:22;;;;;;;;;;;15.30;99.90;;;;;;8362915;28;19925;-72
2021/10/02 20:07:24;;;;;;;;;;;15.30;99.90;;;;;;8377435;28;19920;-72
2021/10/02 20:11:25;;;;;;;;;;;15.30;99.90;;;;;;8364080;28;19975;-72
2021/10/02 20:15:27;;;;;;;;;;;15.30;99.90;;;;;;8365041;28;19924;-72
2021/10/02 20:19:29;;;;;;;;;;;15.30;99.90;;;;;;8380254;28;19978;-71
2021/10/02 20:23:31;;;;;;;;;;;15.40;99.90;;;;;;8362468;28;19924;-72
2021/10/02 20:27:33;;;;;;;;;;;15.40;99.90;;;;;;8372264;28;19928;-71
2021/10/02 20:31:35;;;;;;;;;;;15.50;99.90;;;;;;8370375;28;19954;-71
2021/10/02 20:35:36;;;;;;;;;;;15.50;99.90;;;;;;8382310;28;20002;-71
2021/10/02 20:39:38;;;;;;;;;;;15.50;99.90;;;;;;8370160;28;19924;-72
2021/10/02 20:43:40;;;;;;;;;;;15.50;99.90;;;;;;8366976;28;20008;-72
2021/10/02 20:47:42;;;;;;;;;;;15.60;99.90;;;;;;8366378;28;19928;-72
2021/10/02 20:51:44;;;;;;;;;;;15.60;99.90;;;;;;8368943;28;19967;-72
2021/10/02 20:55:46;;;;;;;;;;;15.70;99.90;;;;;;8368015;28;19924;-72
2021/10/02 20:59:47;;;;;;;;;;;15.70;99.90;;;;;;8370625;28;20274;-71
2021/10/02 21:03:51;;;;;;;;;;;15.70;99.90;;;;;;8384760;28;19928;-72
2021/10/02 21:07:53;;;;;;;;;;;15.80;99.90;;;;;;8396091;28;20739;-72
2021/10/02 21:11:54;;;;;;;;;;;15.90;99.90;;;;;;8374918;28;20273;-71
2021/10/02 21:15:56;;;;;;;;;;;15.90;99.90;;;;;;8393133;28;19936;-71
2021/10/02 21:19:58;;;;;;;;;;;15.90;99.90;;;;;;8385382;28;19971;-72
2021/10/02 21:24:00;;;;;;;;;;;16.00;99.90;;;;;;8382503;28;19920;-72
2021/10/02 21:28:04;;;;;;;;;;;16.00;99.90;;;;;;8386589;28;19925;-72
2021/10/02 21:32:05;;;;;;;;;;;16.00;99.90;;;;;;8378463;28;19921;-72
2021/10/02 21:36:07;;;;;;;;;;;16.10;99.90;;;;;;8381744;28;19928;-72
2021/10/02 21:40:09;;;;;;;;;;;16.20;99.90;;;;;;8405133;28;19935;-71
2021/10/02 21:44:11;;;;;;;;;;;16.20;99.90;;;;;;8394598;28;19960;-72
2021/10/02 21:48:13;;;;;;;;;;;16.30;99.90;;;;;;8412067;28;19920;-72
2021/10/02 21:52:15;;;;;;;;;;;16.40;99.90;;;;;;8407970;28;19925;-72
2021/10/02 21:56:20;;;;;;;;;;;16.40;99.90;;;;;;8392424;28;19920;-72
2021/10/02 22:00:25;;;;;;;;;;;16.50;99.90;;;;;;8409300;28;20260;-72
2021/10/02 22:04:27;;;;;;;;;;;16.50;99.90;;;;;;8384706;28;19943;-72
2021/10/02 22:08:31;;;;;;;;;;;16.50;99.90;;;;;;8387284;28;19920;-72
2021/10/02 22:12:33;;;;;;;;;;;16.50;99.90;;;;;;8388929;28;19928;-72
2021/10/02 22:16:35;;;;;;;;;;;16.60;99.90;;;;;;8386446;28;19931;-73
2021/10/02 22:20:37;;;;;;;;;;;16.60;99.90;;;;;;8382119;28;19920;-72
2021/10/02 22:24:39;;;;;;;;;;;16.70;99.90;;;;;;8392782;28;19921;-72
2021/10/02 22:28:41;;;;;;;;;;;16.70;99.90;;;;;;8407997;28;19927;-72
2021/10/02 22:32:43;;;;;;;;;;;16.70;99.90;;;;;;8407712;28;20302;-72
2021/10/02 22:36:45;;;;;;;;;;;16.80;99.90;;;;;;8390825;28;19931;-72
2021/10/02 22:40:47;;;;;;;;;;;16.80;99.90;;;;;;8391584;28;19925;-73
2021/10/02 22:44:49;;;;;;;;;;;16.90;99.90;;;;;;8403079;28;19920;-72
2021/10/02 22:48:51;;;;;;;;;;;16.90;99.90;;;;;;8380253;28;19920;-72
2021/10/02 22:52:53;;;;;;;;;;;16.90;99.90;;;;;;8385524;28;20296;-73
2021/10/02 22:56:55;;;;;;;;;;;16.90;99.90;;;;;;8389864;28;20296;-73
2021/10/02 23:00:57;;;;;;;;;;;16.90;99.90;;;;;;8385407;28;19928;-72
2021/10/02 23:04:59;;;;;;;;;;;16.90;99.90;;;;;;8390071;28;19920;-73
2021/10/02 23:09:01;;;;;;;;;;;16.90;99.90;;;;;;8391235;28;19941;-73
2021/10/02 23:13:03;;;;;;;;;;;16.90;99.90;;;;;;8387683;28;19921;-73
2021/10/02 23:17:06;;;;;;;;;;;16.80;99.90;;;;;;8381305;28;19920;-73
2021/10/02 23:21:09;;;;;;;;;;;16.90;99.90;;;;;;8376416;28;20406;-72
2021/10/02 23:25:10;;;;;;;;;;;16.80;99.90;;;;;;8387024;28;19920;-72
2021/10/02 23:29:14;;;;;;;;;;;16.80;99.90;;;;;;8382030;28;19927;-72
2021/10/02 23:33:16;;;;;;;;;;;16.80;99.90;;;;;;8382230;28;19928;-72
2021/10/02 23:37:18;;;;;;;;;;;16.80;99.90;;;;;;8381708;28;19920;-72
2021/10/02 23:41:20;;;;;;;;;;;16.70;99.90;;;;;;8392275;28;19928;-72
2021/10/02 23:45:22;;;;;;;;;;;16.70;99.90;;;;;;8407034;28;19929;-72
2021/10/02 23:49:23;;;;;;;;;;;16.70;99.90;;;;;;8390140;28;19943;-73
2021/10/02 23:53:33;;;;;;;;;;;16.70;99.90;;;;;;8392078;28;20350;-73
2021/10/02 23:57:37;;;;;;;;;;;16.70;99.90;;;;;;8384431;28;20230;-72
